Weather reports worldwide

Advertisment
Mumbles, United Kingdom (3609): temperature & dewpoint: 08.12.2019 02:00:00 - 14.12.2019 02:00:00 (GMT)Mumbles, United Kingdom (3609): wind speed & gusts: 08.12.2019 02:00:00 - 14.12.2019 02:00:00 (GMT)Mumbles, United Kingdom (3609): wind direction: 08.12.2019 02:00:00 - 14.12.2019 02:00:00 (GMT)Mumbles, United Kingdom (3609): reduced air pressure: 08.12.2019 02:00:00 - 14.12.2019 02:00:00 (GMT)Mumbles, United Kingdom (3609): precipitation: 08.12.2019 02:00:00 - 14.12.2019 02:00:00 (GMT)
Date & Time tt [°C] td [°C] ff [km/h] ff [kn] fx [km/h] fx [kn] dd ppp [hPa] rr [mm]
14.12.2019 02:00:00 7,0 2,7 34 18 52 28 W 987,0 0,2
14.12.2019 01:00:00 6,9 4,2 34 18 55 30 W 985,8 0,2
14.12.2019 00:00:00 6,9 4,9 21 11 - - W 985,6 0,0
13.12.2019 23:00:00 6,2 5,2 16 9 - - WNW 984,9 0,2
13.12.2019 22:00:00 6,2 5,5 16 9 - - NW 982,4 1,0
13.12.2019 21:00:00 6,4 5,7 9 5 - - N 981,6 1,0
13.12.2019 20:00:00 6,6 5,9 11 6 - - NNW 981,8 2,0
13.12.2019 19:00:00 7,1 6,2 13 7 - - WSW 983,1 1,8
13.12.2019 18:00:00 7,1 4,8 18 10 - - W 984,3 0,2
13.12.2019 17:00:00 8,4 3,0 26 14 50 27 W 985,6 0,0
13.12.2019 16:00:00 8,3 2,2 29 16 48 26 W 985,9 0,0
13.12.2019 15:00:00 8,1 1,5 31 17 59 32 W 986,5 0,0
13.12.2019 14:00:00 8,3 2,1 35 19 70 38 W 986,5 0,0
13.12.2019 13:00:00 8,6 2,1 - - 67 36 - 986,6 0,0
13.12.2019 12:00:00 8,2 2,3 41 22 63 34 W 986,6 0,0
13.12.2019 11:00:00 7,8 2,7 41 22 57 31 W 986,2 0,0
13.12.2019 10:00:00 7,5 2,6 31 17 55 30 W 985,5 0,0
13.12.2019 09:00:00 7,2 2,0 31 17 63 34 W 984,3 0,0
13.12.2019 08:00:00 7,4 1,9 31 17 68 37 W 982,9 0,0
13.12.2019 07:00:00 7,3 1,3 41 22 68 37 W 981,5 0,0
13.12.2019 06:00:00 7,2 1,8 37 20 70 38 W 980,6 0,0
13.12.2019 05:00:00 7,2 2,2 35 19 70 38 WNW 979,8 0,0
13.12.2019 04:00:00 7,1 2,6 37 20 63 34 W 978,8 0,0
13.12.2019 03:00:00 7,4 3,1 37 20 70 38 W 978,3 0,0
13.12.2019 02:00:00 7,2 3,3 31 17 65 35 W 977,0 0,0
13.12.2019 01:00:00 7,0 3,1 37 20 63 34 W 976,0 0,0
13.12.2019 00:00:00 7,5 3,6 31 17 59 32 W 975,7 0,0
12.12.2019 23:00:00 8,1 4,0 35 19 61 33 W 975,2 0,0
12.12.2019 22:00:00 8,7 5,8 31 17 65 35 W 974,6 0,0
12.12.2019 21:00:00 9,1 7,7 31 17 61 33 W 974,7 2,8
12.12.2019 20:00:00 9,3 8,2 41 22 55 30 WSW 975,9 1,0
12.12.2019 19:00:00 9,7 8,2 39 21 48 26 WSW 977,7 0,2
12.12.2019 18:00:00 9,6 7,0 34 18 - - W 979,6 0,0
12.12.2019 17:00:00 9,4 7,2 34 18 52 28 W 980,4 0,0
12.12.2019 16:00:00 9,5 7,4 34 18 48 26 W 981,0 0,0
12.12.2019 15:00:00 9,2 7,6 24 13 48 26 W 981,7 0,0
12.12.2019 14:00:00 9,2 7,7 28 15 54 29 W 981,5 0,2
12.12.2019 13:00:00 9,4 8,6 34 18 59 32 W 981,5 0,8
12.12.2019 12:00:00 9,3 8,8 44 24 57 31 S 982,1 1,8
12.12.2019 11:00:00 9,5 8,9 39 21 61 33 SSW 984,0 0,6
12.12.2019 10:00:00 9,8 9,4 50 27 65 35 SSW 985,3 4,0
12.12.2019 09:00:00 9,3 8,9 42 23 61 33 S 987,0 0,8
12.12.2019 08:00:00 8,7 8,0 48 26 61 33 S 988,5 0,8
12.12.2019 07:00:00 8,2 7,1 48 26 63 34 S 990,7 0,8
12.12.2019 06:00:00 8,1 6,5 50 27 65 35 S 992,7 0,4
12.12.2019 05:00:00 7,1 5,9 41 22 54 29 S 995,2 0,8
12.12.2019 04:00:00 6,5 5,3 37 20 50 27 S 997,5 1,6
12.12.2019 03:00:00 7,0 5,1 29 16 48 26 SSW 999,6 0,6
12.12.2019 02:00:00 6,1 3,8 21 11 57 31 SW 1001,1 0,2
12.12.2019 01:00:00 6,1 2,0 15 8 - - W 1002,5 0,0
12.12.2019 00:00:00 5,0 1,7 8 4 59 32 WNW 1003,7 0,0
11.12.2019 23:00:00 5,7 1,8 11 6 - - W 1004,3 0,0
11.12.2019 22:00:00 5,2 1,9 13 7 - - W 1004,5 0,0
11.12.2019 21:00:00 5,0 1,6 11 6 - - W 1004,8 0,0
11.12.2019 20:00:00 5,4 1,5 16 9 - - W 1004,6 0,0
11.12.2019 19:00:00 5,2 2,2 11 6 - - W 1004,6 0,0
11.12.2019 18:00:00 5,1 2,3 - - - - - 1004,1 0,0
11.12.2019 17:00:00 4,9 2,5 11 6 - - W 1003,7 0,0
11.12.2019 16:00:00 5,6 2,8 13 7 - - W 1002,8 0,0
11.12.2019 15:00:00 6,3 3,9 11 6 - - W 1002,2 0,0
11.12.2019 14:00:00 5,6 3,7 8 4 - - W 1001,7 0,2
11.12.2019 13:00:00 5,8 4,2 11 6 54 29 WNW 1001,6 0,4
11.12.2019 12:00:00 5,7 4,6 8 4 63 34 W 1001,9 1,2
11.12.2019 11:00:00 6,3 4,3 41 22 61 33 SW 1002,1 1,0
11.12.2019 10:00:00 6,2 4,5 35 19 68 37 SSW 1003,3 0,6
11.12.2019 09:00:00 7,9 3,6 59 32 70 38 SW 1003,4 0,2
11.12.2019 08:00:00 7,0 3,9 34 18 65 35 W 1004,3 0,0
11.12.2019 07:00:00 7,7 2,9 52 28 67 36 WSW 1005,2 0,0
11.12.2019 06:00:00 8,5 5,0 39 21 63 34 WSW 1005,7 0,2
11.12.2019 05:00:00 9,1 4,5 42 23 54 29 WSW 1006,3 0,0
11.12.2019 04:00:00 8,6 5,1 42 23 57 31 SW 1007,3 0,0
11.12.2019 03:00:00 7,5 3,7 26 14 - - W 1008,2 0,0
11.12.2019 02:00:00 6,7 4,0 24 13 - - W 1008,8 1,0
11.12.2019 01:00:00 7,6 3,3 16 9 - - W 1009,1 0,0
11.12.2019 00:00:00 7,4 3,3 22 12 - - W 1009,0 0,0
10.12.2019 23:00:00 7,6 3,3 24 13 - - W 1008,5 0,0
10.12.2019 22:00:00 7,9 2,8 26 14 - - W 1007,9 0,0
10.12.2019 21:00:00 7,9 3,4 24 13 - - W 1007,1 0,0
10.12.2019 20:00:00 8,1 4,7 21 11 - - W 1006,5 0,0
10.12.2019 19:00:00 8,0 5,6 35 19 70 38 W 1005,6 0,4
10.12.2019 18:00:00 9,1 7,8 31 17 48 26 W 1004,2 1,4
10.12.2019 17:00:00 9,2 8,2 34 18 109 59 W 1002,4 2,0
10.12.2019 16:00:00 11,8 11,4 81 44 96 52 SSW 999,3 0,4
10.12.2019 15:00:00 11,9 11,1 76 41 96 52 SSW 1000,6 0,0
10.12.2019 14:00:00 11,9 11,2 70 38 83 45 SSW 1002,4 0,0
10.12.2019 13:00:00 11,4 11,0 65 35 76 41 SSW 1004,3 0,2
10.12.2019 12:00:00 11,3 10,6 61 33 70 38 SSW 1006,1 0,0
10.12.2019 11:00:00 11,2 10,2 57 31 72 39 SSW 1008,3 0,0
10.12.2019 10:00:00 10,3 9,8 63 34 78 42 SSW 1009,4 0,4
10.12.2019 09:00:00 10,2 9,1 59 32 74 40 S 1010,8 0,6
10.12.2019 08:00:00 10,1 8,6 61 33 74 40 S 1012,3 0,2
10.12.2019 07:00:00 9,8 8,2 46 25 59 32 S 1014,5 0,4
10.12.2019 06:00:00 9,2 7,4 31 17 50 27 S 1016,8 0,4
10.12.2019 05:00:00 9,2 6,5 41 22 57 31 S 1018,4 0,0
10.12.2019 04:00:00 9,1 6,3 46 25 55 30 SSW 1020,0 0,0
10.12.2019 03:00:00 8,6 6,3 39 21 48 26 S 1021,2 0,0
10.12.2019 02:00:00 8,5 6,0 41 22 48 26 SSW 1022,4 0,0
10.12.2019 01:00:00 8,1 5,9 37 20 - - S 1023,3 0,0
10.12.2019 00:00:00 8,1 5,9 34 18 - - S 1024,2 0,0
09.12.2019 23:00:00 5,3 3,4 11 6 - - NE 1025,0 0,0
09.12.2019 22:00:00 5,0 3,2 11 6 - - NE 1025,3 0,0
09.12.2019 21:00:00 6,0 3,6 8 4 - - N 1025,5 0,0
09.12.2019 20:00:00 6,9 3,3 11 6 - - W 1025,2 0,0
09.12.2019 19:00:00 7,5 3,3 15 8 - - W 1025,3 0,0
09.12.2019 18:00:00 6,8 2,9 15 8 - - W 1024,5 0,0
09.12.2019 17:00:00 7,5 1,9 11 6 - - WNW 1023,9 0,0
09.12.2019 16:00:00 8,3 1,7 16 9 - - WNW 1023,4 0,0
09.12.2019 15:00:00 9,2 1,6 16 9 54 29 NW 1022,3 0,0
09.12.2019 14:00:00 9,4 1,7 31 17 46 25 NW 1021,3 0,0
09.12.2019 13:00:00 9,6 1,4 31 17 52 28 NW 1020,3 0,0
09.12.2019 12:00:00 9,5 2,0 29 16 54 29 NW 1019,1 0,0
09.12.2019 11:00:00 9,3 2,4 31 17 59 32 NW 1017,6 0,0
09.12.2019 10:00:00 8,9 2,8 37 20 57 31 NW 1015,5 0,0
09.12.2019 09:00:00 8,7 3,2 35 19 61 33 WNW 1013,5 0,0
09.12.2019 08:00:00 9,1 3,4 31 17 61 33 NW 1011,5 0,0
09.12.2019 07:00:00 8,9 4,0 35 19 70 38 NW 1008,7 0,0
09.12.2019 06:00:00 9,3 3,4 42 23 80 43 WNW 1005,9 0,2
09.12.2019 05:00:00 9,7 4,3 41 22 80 43 NW 1003,0 0,0
09.12.2019 04:00:00 10,2 4,0 44 24 81 44 WNW 1000,4 0,0
09.12.2019 03:00:00 9,9 5,2 50 27 85 46 WNW 997,5 0,0
09.12.2019 02:00:00 9,6 5,1 44 24 91 49 W 995,7 0,0
09.12.2019 01:00:00 9,4 4,7 42 23 63 34 W 994,9 0,0
09.12.2019 00:00:00 8,9 4,7 35 19 61 33 W 995,2 0,0
08.12.2019 23:00:00 8,2 5,1 31 17 83 45 W 994,3 0,0
08.12.2019 22:00:00 8,3 5,6 39 21 93 50 W 991,7 1,2
08.12.2019 21:00:00 8,3 6,5 80 43 113 61 WSW 990,9 2,2
08.12.2019 20:00:00 8,4 7,0 61 33 98 53 WSW 993,7 0,4
08.12.2019 19:00:00 8,7 4,8 65 35 85 46 WSW 994,8 0,4
08.12.2019 18:00:00 9,0 4,6 55 30 91 49 WSW 996,6 0,0
08.12.2019 17:00:00 9,0 4,5 61 33 87 47 W 997,3 0,4
08.12.2019 16:00:00 8,9 4,8 61 33 91 49 WSW 998,0 0,2
08.12.2019 15:00:00 7,1 4,6 48 26 102 55 W 999,1 0,4
08.12.2019 14:00:00 9,5 3,9 63 34 98 53 W 999,2 0,0
08.12.2019 13:00:00 9,5 5,4 67 36 106 57 WSW 999,6 0,4
08.12.2019 12:00:00 10,0 3,7 57 31 85 46 W 1000,6 0,0
08.12.2019 11:00:00 9,9 5,3 65 35 87 47 WSW 1001,3 0,2
08.12.2019 10:00:00 9,9 4,6 61 33 87 47 WSW 1001,9 0,0
08.12.2019 09:00:00 9,2 6,0 57 31 81 44 WSW 1002,0 0,0
08.12.2019 08:00:00 9,9 5,0 55 30 80 43 W 1001,8 0,0
08.12.2019 07:00:00 10,2 5,6 52 28 72 39 W 1001,9 0,0
08.12.2019 06:00:00 10,4 6,1 54 29 68 37 W 1001,3 0,0
08.12.2019 05:00:00 10,7 7,5 52 28 70 38 W 1001,3 0,0
08.12.2019 04:00:00 10,9 7,9 54 29 68 37 W 1001,3 0,0
08.12.2019 03:00:00 11,2 9,3 54 29 85 46 WSW 1000,8 0,2
08.12.2019 02:00:00 11,4 11,2 59 32 85 46 WSW 1000,1 0,4

tt = temperature
td = dewpoint
ff = wind speed
fx = gusts
dd = wind direction
ppp = reduced air pressure
rr = precipitation

Next stations